Time;durP1;ratioP1;P1;durP2;ratioP2;P2;SDS_P1;SDS_P2;PMS_P1;PMS_P2;Temp;Humidity;BMP_temperature;BMP_pressure;BME280_temperature;BME280_humidity;BME280_pressure;Samples;Min_cycle;Max_cycle;Signal;HPM_P1;HPM_P2
2023/12/21 00:02:11;;;;;;;1.10;1.10;;;;;;;20.09;47.32;97160.75;4988178;28;20249;-26
2023/12/21 00:04:37;;;;;;;1.30;1.20;;;;;;;20.07;47.33;97155.59;4985187;28;20227;-28
2023/12/21 00:07:04;;;;;;;1.00;1.00;;;;;;;20.06;47.49;97141.13;4983253;28;20231;-26
2023/12/21 00:09:31;;;;;;;1.30;1.20;;;;;;;20.04;47.38;97131.72;4969014;28;20203;-26
2023/12/21 00:11:58;;;;;;;1.20;1.10;;;;;;;20.07;47.30;97136.91;4975351;28;20214;-27
2023/12/21 00:14:27;;;;;;;1.13;1.13;;;;;;;20.08;47.48;97130.97;4973959;28;20227;-31
2023/12/21 00:16:53;;;;;;;1.13;1.10;;;;;;;20.09;47.52;97127.59;4965726;28;20610;-26
2023/12/21 00:19:20;;;;;;;1.10;1.10;;;;;;;20.10;47.37;97114.88;4976542;28;20254;-27
2023/12/21 00:21:47;;;;;;;1.40;1.30;;;;;;;20.10;47.37;97114.03;4973090;28;20281;-27
2023/12/21 00:24:14;;;;;;;1.00;1.00;;;;;;;20.10;47.45;97114.88;4981767;28;20344;-26
2023/12/21 00:26:40;;;;;;;1.30;1.20;;;;;;;20.11;47.42;97121.75;4980497;28;20222;-28
2023/12/21 00:29:08;;;;;;;1.10;1.10;;;;;;;19.95;47.24;97076.19;4977139;28;20239;-26
2023/12/21 00:31:35;;;;;;;1.23;1.20;;;;;;;20.12;47.25;97114.94;4973341;28;20207;-27
2023/12/21 00:34:02;;;;;;;1.17;1.10;;;;;;;20.12;47.34;97125.13;4972457;28;20223;-27
2023/12/21 00:36:29;;;;;;;1.27;1.20;;;;;;;20.13;47.44;97117.56;4979457;28;20199;-29
2023/12/21 00:38:55;;;;;;;1.30;1.20;;;;;;;20.12;47.25;97125.13;4980258;28;20204;-26
2023/12/21 00:41:22;;;;;;;1.20;1.20;;;;;;;20.14;47.48;97128.63;4973134;28;20199;-26
2023/12/21 00:43:48;;;;;;;1.17;1.13;;;;;;;20.14;47.44;97132.06;4986778;28;20773;-30
2023/12/21 00:46:15;;;;;;;1.40;1.30;;;;;;;20.13;47.40;97129.47;4984055;28;20730;-27
2023/12/21 00:48:41;;;;;;;1.30;1.20;;;;;;;20.13;47.53;97115.00;4986320;28;20210;-27
2023/12/21 00:51:09;;;;;;;1.23;1.13;;;;;;;20.12;47.37;97118.34;4977012;28;20242;-27
2023/12/21 00:53:35;;;;;;;1.03;1.00;;;;;;;20.11;47.45;97116.63;4951688;28;20220;-27
2023/12/21 00:56:02;;;;;;;1.00;1.00;;;;;;;20.10;47.50;97104.69;4977409;28;20682;-26
2023/12/21 00:58:28;;;;;;;1.17;1.07;;;;;;;20.11;47.62;97111.53;4972438;28;20200;-26
2023/12/21 01:00:55;;;;;;;1.10;1.10;;;;;;;20.13;47.64;97114.16;4977166;28;20285;-26
2023/12/21 01:03:22;;;;;;;1.23;1.13;;;;;;;20.11;47.63;97103.00;4973364;28;20219;-26
2023/12/21 01:05:49;;;;;;;1.23;1.20;;;;;;;20.11;47.48;97095.34;4973126;28;20207;-26
2023/12/21 01:08:16;;;;;;;1.20;1.10;;;;;;;20.12;47.54;97095.41;4968026;28;20219;-27
2023/12/21 01:10:43;;;;;;;1.40;1.30;;;;;;;20.13;47.43;97094.59;4967071;28;20282;-27
2023/12/21 01:13:09;;;;;;;1.00;1.00;;;;;;;20.13;47.45;97089.50;4980430;28;20247;-27
2023/12/21 01:15:36;;;;;;;1.10;1.10;;;;;;;20.14;47.45;97087.81;4967451;28;20210;-28
2023/12/21 01:18:03;;;;;;;1.10;1.10;;;;;;;20.13;47.37;97079.28;4985551;28;20199;-27
2023/12/21 01:20:29;;;;;;;1.17;1.07;;;;;;;20.14;47.76;97082.72;4976812;28;20627;-26
2023/12/21 01:22:56;;;;;;;1.10;1.10;;;;;;;19.87;47.32;97029.22;4972978;28;20645;-26
2023/12/21 01:25:22;;;;;;;1.20;1.13;;;;;;;20.14;47.38;97080.16;4979205;28;20215;-26
2023/12/21 01:27:49;;;;;;;1.07;1.00;;;;;;;20.14;47.37;97072.50;4972848;28;20224;-26
2023/12/21 01:30:16;;;;;;;1.20;1.10;;;;;;;20.13;47.61;97074.19;4977636;28;20229;-28
2023/12/21 01:32:43;;;;;;;1.00;1.00;;;;;;;20.16;47.32;97070.88;4969599;28;20286;-31
2023/12/21 01:35:10;;;;;;;1.10;1.10;;;;;;;20.16;47.45;97068.31;4983803;28;20334;-26
2023/12/21 01:37:36;;;;;;;1.20;1.10;;;;;;;20.15;47.51;97067.44;4984781;28;20195;-26
2023/12/21 01:40:03;;;;;;;1.13;1.07;;;;;;;20.14;47.56;97060.63;4970313;28;20204;-29
2023/12/21 01:42:30;;;;;;;1.27;1.17;;;;;;;20.16;47.40;97058.13;4982205;28;20219;-26
2023/12/21 01:44:57;;;;;;;1.00;1.00;;;;;;;20.15;47.42;97066.56;4967947;28;20427;-26
2023/12/21 01:47:23;;;;;;;1.20;1.20;;;;;;;20.15;47.56;97064.03;4972314;28;20219;-30
2023/12/21 01:49:50;;;;;;;1.30;1.20;;;;;;;20.14;47.67;97047.88;4982963;28;20661;-27
2023/12/21 01:52:17;;;;;;;1.20;1.10;;;;;;;20.14;47.62;97037.66;4978166;28;20199;-26
2023/12/21 01:54:43;;;;;;;1.30;1.20;;;;;;;20.11;47.48;97044.34;4964904;28;20215;-27
2023/12/21 01:57:10;;;;;;;1.27;1.20;;;;;;;20.15;47.50;97038.50;4974932;28;20231;-28
2023/12/21 01:59:36;;;;;;;1.10;1.07;;;;;;;20.14;47.55;97040.22;4982891;28;20235;-26
2023/12/21 02:02:03;;;;;;;1.10;1.10;;;;;;;20.14;47.37;97047.88;4961032;28;20296;-27
2023/12/21 02:04:30;;;;;;;1.20;1.10;;;;;;;20.15;47.61;97048.72;4985957;28;20219;-29
2023/12/21 02:06:56;;;;;;;1.00;1.00;;;;;;;20.14;47.44;97049.56;4977631;28;20224;-37
2023/12/21 02:09:23;;;;;;;1.20;1.17;;;;;;;20.15;47.46;97035.97;4985581;28;20242;-26
2023/12/21 02:11:50;;;;;;;1.07;1.03;;;;;;;20.16;47.60;97042.81;4977429;28;20203;-26
2023/12/21 02:14:16;;;;;;;1.03;1.03;;;;;;;20.15;47.62;97034.28;4983761;28;20310;-27
2023/12/21 02:16:45;;;;;;;2.17;1.10;;;;;;;20.16;47.43;97030.06;4976139;28;20264;-26
2023/12/21 02:19:12;;;;;;;1.10;1.10;;;;;;;20.15;47.17;97025.75;4969901;28;20208;-26
2023/12/21 02:21:39;;;;;;;1.60;1.20;;;;;;;20.16;47.53;97014.75;4960062;28;20667;-27
2023/12/21 02:24:15;;;;;;;1.20;1.10;;;;;;;20.15;47.59;97008.78;4975997;28;20289;-26
2023/12/21 02:26:42;;;;;;;1.10;1.10;;;;;;;20.17;47.37;97006.25;4985875;28;20238;-26
2023/12/21 02:29:08;;;;;;;1.00;1.00;;;;;;;20.15;47.64;96993.47;4981750;28;20210;-26
2023/12/21 02:31:35;;;;;;;1.30;1.20;;;;;;;20.16;47.50;96996.88;4993124;28;20235;-27
2023/12/21 02:34:03;;;;;;;1.20;1.10;;;;;;;20.16;47.59;96986.69;4975474;28;20228;-26
2023/12/21 02:36:30;;;;;;;1.10;1.10;;;;;;;20.16;47.62;96989.25;4989621;28;20254;-27
2023/12/21 02:38:56;;;;;;;1.50;1.40;;;;;;;20.17;47.39;96980.75;4984283;28;20199;-29
2023/12/21 02:41:23;;;;;;;1.00;1.00;;;;;;;20.18;47.49;96982.47;4976528;28;20207;-26
2023/12/21 02:43:49;;;;;;;1.03;1.03;;;;;;;20.17;47.39;96979.06;4985787;28;20223;-31
2023/12/21 02:46:18;;;;;;;1.20;1.10;;;;;;;20.16;47.59;96972.22;4980852;28;20204;-28
2023/12/21 02:48:44;;;;;;;1.10;1.10;;;;;;;20.16;47.59;96972.22;4980040;28;20310;-42
2023/12/21 02:51:11;;;;;;;1.23;1.13;;;;;;;20.16;47.40;96968.84;4989477;28;20206;-26
2023/12/21 02:53:39;;;;;;;1.00;1.00;;;;;;;20.16;47.58;96958.63;4983823;28;20311;-31
2023/12/21 02:56:06;;;;;;;1.10;1.10;;;;;;;20.15;47.59;96956.88;4974406;28;20207;-26
2023/12/21 02:58:32;;;;;;;0.93;0.93;;;;;;;20.15;47.59;96947.53;4975623;28;20601;-26
2023/12/21 03:01:01;;;;;;;1.10;1.10;;;;;;;20.14;47.47;96948.38;4988488;28;20207;-28
2023/12/21 03:03:27;;;;;;;1.10;1.10;;;;;;;20.15;47.38;96939.91;4982984;28;20230;-26
2023/12/21 03:05:54;;;;;;;1.23;1.13;;;;;;;20.12;47.58;96921.06;4987215;28;20202;-26
2023/12/21 03:08:21;;;;;;;1.00;1.00;;;;;;;20.11;47.40;96919.34;4981923;28;20223;-33
2023/12/21 03:10:48;;;;;;;1.10;1.10;;;;;;;20.09;47.58;96913.31;4973026;28;20203;-33
2023/12/21 03:13:14;;;;;;;1.30;1.20;;;;;;;20.10;47.31;96922.72;4975204;28;20290;-30
2023/12/21 03:15:41;;;;;;;1.00;1.00;;;;;;;20.08;47.41;96917.59;4978039;28;20689;-28
2023/12/21 03:18:07;;;;;;;1.00;1.00;;;;;;;20.10;47.53;96915.91;4971467;28;20223;-26
2023/12/21 03:20:34;;;;;;;1.30;1.20;;;;;;;20.08;47.40;96906.50;4973281;28;20203;-27
2023/12/21 03:23:01;;;;;;;1.10;1.10;;;;;;;20.09;47.47;96898.00;4988018;28;20219;-26
2023/12/21 03:25:28;;;;;;;1.10;1.10;;;;;;;20.08;47.63;96884.41;4972947;28;20320;-26
2023/12/21 03:27:55;;;;;;;1.10;1.10;;;;;;;20.07;47.50;96880.13;4988577;28;20315;-26
2023/12/21 03:30:22;;;;;;;1.07;1.00;;;;;;;20.07;47.70;96874.19;4979709;28;20235;-28
2023/12/21 03:32:48;;;;;;;1.03;1.03;;;;;;;20.07;47.85;96866.53;4974587;28;20644;-27
2023/12/21 03:35:15;;;;;;;1.10;1.10;;;;;;;20.07;47.54;96864.81;4971748;28;20678;-28
2023/12/21 03:37:42;;;;;;;1.37;1.10;;;;;;;20.08;47.73;96868.25;4970080;28;20340;-34
2023/12/21 03:40:09;;;;;;;1.03;1.03;;;;;;;20.07;47.69;96852.06;4972007;28;20211;-26
2023/12/21 03:42:35;;;;;;;0.93;0.93;;;;;;;20.08;47.87;96835.09;4972872;28;20216;-26
2023/12/21 03:45:02;;;;;;;1.00;1.00;;;;;;;20.08;47.55;96841.06;4977642;28;20204;-26
2023/12/21 03:47:29;;;;;;;1.10;1.10;;;;;;;20.10;47.68;96851.31;4983825;28;20273;-26
2023/12/21 03:49:56;;;;;;;1.10;1.10;;;;;;;20.09;47.66;96852.09;4978128;28;20203;-26
2023/12/21 03:52:22;;;;;;;0.90;0.90;;;;;;;20.07;48.03;96844.41;4973197;28;20204;-28
2023/12/21 03:54:49;;;;;;;1.20;1.10;;;;;;;20.06;47.66;96836.72;4974170;28;20214;-26
2023/12/21 03:57:15;;;;;;;1.03;1.03;;;;;;;20.08;47.69;96841.06;4974510;28;20199;-26
2023/12/21 03:59:42;;;;;;;0.90;0.90;;;;;;;20.08;47.60;96835.97;4985458;28;20219;-28
2023/12/21 04:02:09;;;;;;;1.20;1.10;;;;;;;20.08;47.68;96842.72;4971924;28;20257;-29
2023/12/21 04:04:36;;;;;;;1.07;1.07;;;;;;;20.08;47.69;96835.97;4976061;28;20204;-27
2023/12/21 04:07:03;;;;;;;0.90;0.90;;;;;;;20.07;47.58;96836.75;4974009;28;20211;-28
2023/12/21 04:09:29;;;;;;;1.17;1.07;;;;;;;20.04;47.71;96823.94;4962940;28;20227;-27
2023/12/21 04:11:56;;;;;;;1.07;1.07;;;;;;;20.06;47.78;96824.84;4970083;28;20263;-30
2023/12/21 04:14:22;;;;;;;1.10;1.10;;;;;;;20.05;47.55;96823.13;4974363;28;20721;-37
2023/12/21 04:16:50;;;;;;;1.13;1.10;;;;;;;20.06;47.53;96817.19;4975915;28;20705;-31
2023/12/21 04:19:18;;;;;;;1.23;1.13;;;;;;;20.06;47.49;96812.09;4976167;28;20353;-29
2023/12/21 04:21:45;;;;;;;1.17;1.17;;;;;;;20.06;47.65;96812.09;4985164;28;20294;-27
2023/12/21 04:24:11;;;;;;;0.90;0.90;;;;;;;20.06;47.64;96829.94;4976553;28;20758;-27
2023/12/21 04:26:39;;;;;;;1.17;1.17;;;;;;;20.07;47.65;96828.28;4982076;28;20198;-26
2023/12/21 04:29:05;;;;;;;1.00;1.00;;;;;;;20.06;47.69;96816.31;4971369;28;20227;-28
2023/12/21 04:31:32;;;;;;;1.10;1.00;;;;;;;20.06;47.65;96806.13;4980177;28;20210;-27
2023/12/21 04:33:59;;;;;;;1.00;1.00;;;;;;;20.06;47.61;96798.47;4979117;28;20690;-26
2023/12/21 04:36:27;;;;;;;1.13;1.13;;;;;;;20.06;47.89;96793.38;4973101;28;20214;-26
2023/12/21 04:38:55;;;;;;;1.00;1.00;;;;;;;20.07;47.92;96803.59;4972527;28;20293;-26
2023/12/21 04:41:22;;;;;;;1.03;1.03;;;;;;;20.06;47.74;96803.56;4965365;28;20291;-27
2023/12/21 04:43:49;;;;;;;1.10;1.10;;;;;;;20.07;47.66;96820.63;4966354;28;20359;-27
2023/12/21 04:46:15;;;;;;;1.20;1.20;;;;;;;20.06;47.83;96819.75;4971751;28;20208;-26
2023/12/21 04:48:42;;;;;;;1.10;1.10;;;;;;;20.06;47.71;96809.53;4972717;28;20235;-26
2023/12/21 04:51:16;;;;;;;1.00;1.00;;;;;;;20.06;47.73;96796.78;4966890;28;20250;-29
2023/12/21 04:53:43;;;;;;;1.10;1.10;;;;;;;20.07;47.61;96798.50;4977014;28;20223;-30
2023/12/21 04:56:09;;;;;;;1.30;1.20;;;;;;;20.08;47.69;96778.97;4977046;28;20666;-26
2023/12/21 04:58:37;;;;;;;1.00;1.00;;;;;;;20.08;47.77;96763.66;4973908;28;20204;-26
2023/12/21 05:01:05;;;;;;;1.00;1.00;;;;;;;20.07;47.79;96751.75;4983051;28;20677;-26
2023/12/21 05:03:32;;;;;;;1.03;1.03;;;;;;;20.07;47.67;96754.31;4982884;28;20312;-27
2023/12/21 05:05:59;;;;;;;0.97;0.97;;;;;;;20.05;47.78;96753.41;4971214;28;20204;-35
2023/12/21 05:08:26;;;;;;;1.00;1.00;;;;;;;20.05;47.64;96763.59;4975487;28;20723;-27
2023/12/21 05:10:52;;;;;;;1.00;1.00;;;;;;;20.04;47.82;96755.06;4971602;28;20200;-27
2023/12/21 05:13:19;;;;;;;1.07;1.07;;;;;;;20.04;47.78;96752.53;4964829;28;20315;-26
2023/12/21 05:15:45;;;;;;;1.17;1.17;;;;;;;20.05;47.87;96738.97;4976893;28;20300;-28
2023/12/21 05:18:12;;;;;;;0.90;0.90;;;;;;;20.04;47.99;96739.78;4989949;28;20230;-27
2023/12/21 05:20:39;;;;;;;1.00;1.00;;;;;;;20.06;47.93;96742.34;4987819;28;20277;-27
2023/12/21 05:23:05;;;;;;;1.10;1.10;;;;;;;20.06;47.67;96739.81;4970087;28;20258;-27
2023/12/21 05:25:32;;;;;;;1.07;1.07;;;;;;;20.04;47.63;96737.22;4977182;28;20203;-28
2023/12/21 05:27:58;;;;;;;0.97;0.97;;;;;;;20.04;47.53;96755.06;4982315;28;20270;-26
2023/12/21 05:30:25;;;;;;;0.97;0.97;;;;;;;20.04;47.89;96744.03;4984381;28;20772;-26
2023/12/21 05:32:52;;;;;;;1.00;1.00;;;;;;;20.06;47.76;96737.25;4982280;28;20314;-26
2023/12/21 05:35:18;;;;;;;1.80;1.10;;;;;;;20.05;47.74;96731.31;4977449;28;20235;-29
2023/12/21 05:37:45;;;;;;;1.00;1.00;;;;;;;20.06;47.77;96722.81;4978277;28;20200;-27
2023/12/21 05:40:12;;;;;;;0.90;0.90;;;;;;;20.07;47.79;96721.16;4969160;28;20232;-26
2023/12/21 05:42:39;;;;;;;1.20;1.10;;;;;;;20.07;47.91;96708.38;4980377;28;20242;-27
2023/12/21 05:45:06;;;;;;;1.00;1.00;;;;;;;20.07;47.79;96716.03;4970721;28;20662;-26
2023/12/21 05:47:33;;;;;;;1.10;1.10;;;;;;;20.08;48.00;96715.22;4975610;28;20210;-29
2023/12/21 05:49:59;;;;;;;0.83;0.83;;;;;;;20.06;47.78;96727.94;4978715;28;20247;-28
2023/12/21 05:52:26;;;;;;;0.97;0.97;;;;;;;20.08;47.76;96733.06;4979021;28;20235;-26
2023/12/21 05:54:53;;;;;;;1.00;1.00;;;;;;;20.07;47.85;96721.97;4957790;28;20358;-26
2023/12/21 05:57:19;;;;;;;1.13;1.10;;;;;;;20.08;47.62;96708.44;4979498;28;20646;-27
2023/12/21 05:59:46;;;;;;;0.90;0.90;;;;;;;20.06;47.20;96694.75;4964528;28;20199;-26
2023/12/21 06:02:13;;;;;;;1.00;1.00;;;;;;;20.05;47.63;96705.81;4961115;28;20722;-31
2023/12/21 06:04:40;;;;;;;0.97;0.97;;;;;;;20.06;47.66;96694.75;4981698;28;20298;-26
2023/12/21 06:07:07;;;;;;;1.00;1.00;;;;;;;20.06;47.88;96692.22;4978759;28;20580;-26
2023/12/21 06:09:33;;;;;;;0.90;0.90;;;;;;;20.06;47.61;96689.66;4980995;28;20764;-26
2023/12/21 06:12:00;;;;;;;1.00;1.00;;;;;;;20.08;47.68;96689.69;4963119;28;20210;-27
2023/12/21 06:14:27;;;;;;;1.13;1.10;;;;;;;20.06;47.76;96694.75;4969296;28;20228;-26
2023/12/21 06:16:54;;;;;;;1.00;1.00;;;;;;;20.05;47.73;96692.19;4980429;28;20207;-26
2023/12/21 06:19:20;;;;;;;0.90;0.90;;;;;;;20.08;47.68;96690.56;4975827;28;20200;-30
2023/12/21 06:21:47;;;;;;;1.23;1.10;;;;;;;20.06;47.95;96684.56;4974917;28;20210;-27
2023/12/21 06:24:14;;;;;;;1.27;1.17;;;;;;;20.08;47.84;96690.56;4978244;28;20689;-27
2023/12/21 06:26:40;;;;;;;1.00;1.00;;;;;;;20.09;48.01;96689.72;4977169;28;20219;-30
2023/12/21 06:29:07;;;;;;;1.10;1.10;;;;;;;20.09;47.86;96699.94;4979066;28;20219;-27
2023/12/21 06:31:34;;;;;;;0.97;0.97;;;;;;;20.10;47.56;96695.69;4969910;28;20199;-26
2023/12/21 06:34:01;;;;;;;1.10;1.10;;;;;;;20.11;47.78;96689.75;4973552;28;20219;-26
2023/12/21 06:36:28;;;;;;;0.90;0.90;;;;;;;20.11;47.94;96682.13;4983100;28;20206;-26
2023/12/21 06:38:55;;;;;;;0.93;0.93;;;;;;;20.11;47.96;96671.91;4971200;28;20196;-27
2023/12/21 06:41:22;;;;;;;1.00;1.00;;;;;;;20.11;47.65;96659.16;4968633;28;20782;-26
2023/12/21 06:43:48;;;;;;;1.00;1.00;;;;;;;20.11;47.73;96654.94;4977622;28;20305;-26
2023/12/21 06:46:15;;;;;;;0.93;0.93;;;;;;;20.07;47.78;96655.66;4966644;28;20691;-27
2023/12/21 06:48:42;;;;;;;1.10;1.10;;;;;;;20.09;47.69;96650.59;4971912;28;20228;-28
2023/12/21 06:51:09;;;;;;;1.00;1.00;;;;;;;20.11;47.52;96654.94;4978943;28;20286;-29
2023/12/21 06:53:35;;;;;;;1.13;1.10;;;;;;;20.10;45.97;96654.91;4975594;28;20228;-26
2023/12/21 06:56:02;;;;;;;1.10;1.10;;;;;;;20.07;46.43;96637.81;4969951;28;20299;-28
2023/12/21 06:58:48;;;;;;;0.90;0.90;;;;;;;20.10;46.76;96647.25;4972352;28;20204;-28
2023/12/21 07:01:15;;;;;;;1.00;1.00;;;;;;;20.11;46.89;96628.56;4972110;28;20200;-27
2023/12/21 07:03:41;;;;;;;1.30;1.20;;;;;;;20.10;46.94;96622.56;4967455;28;20667;-26
2023/12/21 07:06:10;;;;;;;1.00;1.00;;;;;;;20.11;47.00;96626.00;4976846;28;20615;-27
2023/12/21 07:08:38;;;;;;;0.90;0.90;;;;;;;20.11;47.35;96600.50;4971273;28;20344;-26
2023/12/21 07:11:04;;;;;;;1.03;1.03;;;;;;;20.14;47.08;96616.75;4978002;28;20223;-29
2023/12/21 07:13:31;;;;;;;2.57;1.10;;;;;;;20.13;47.26;96615.03;4981971;28;20235;-26
2023/12/21 07:15:58;;;;;;;1.10;1.00;;;;;;;20.02;47.29;96594.38;4968098;28;20204;-26
2023/12/21 07:18:24;;;;;;;1.03;1.03;;;;;;;20.14;47.71;96598.91;4967266;28;20193;-30
2023/12/21 07:20:51;;;;;;;1.20;1.10;;;;;;;20.13;47.39;96602.25;4970836;28;20678;-26
2023/12/21 07:23:18;;;;;;;1.00;1.00;;;;;;;20.13;47.33;96603.97;4968443;28;20286;-26
2023/12/21 07:25:45;;;;;;;1.00;1.00;;;;;;;20.15;47.58;96599.75;4973370;28;20207;-26
2023/12/21 07:28:11;;;;;;;1.20;1.10;;;;;;;20.15;47.80;96587.88;4970541;28;20601;-30
2023/12/21 07:30:38;;;;;;;1.20;1.10;;;;;;;20.16;47.54;96583.63;4989954;28;20200;-27
2023/12/21 07:33:04;;;;;;;0.90;0.90;;;;;;;20.16;47.33;96586.19;4961956;28;20224;-26
2023/12/21 07:35:32;;;;;;;1.30;1.20;;;;;;;20.16;47.36;96581.09;4981534;28;20206;-27
2023/12/21 07:37:58;;;;;;;0.90;0.90;;;;;;;20.17;47.52;96575.13;4966967;28;20216;-26
2023/12/21 07:40:25;;;;;;;1.00;1.00;;;;;;;20.17;47.87;96562.38;4981794;28;20191;-26
2023/12/21 07:42:51;;;;;;;0.90;0.90;;;;;;;20.18;47.35;96562.41;4979160;28;20218;-28
2023/12/21 07:45:18;;;;;;;1.53;1.10;;;;;;;20.17;47.31;96549.63;4966361;28;20295;-26
2023/12/21 07:47:45;;;;;;;1.00;1.00;;;;;;;20.16;47.51;96542.81;4978777;28;20294;-26
2023/12/21 07:50:11;;;;;;;1.00;1.00;;;;;;;20.16;47.29;96547.91;4973524;28;20242;-29
2023/12/21 07:52:38;;;;;;;1.37;1.00;;;;;;;20.16;47.79;96551.31;4965209;28;20217;-30
2023/12/21 07:55:05;;;;;;;1.17;1.07;;;;;;;20.17;47.33;96534.31;4973500;28;20199;-27
2023/12/21 07:57:32;;;;;;;1.47;0.97;;;;;;;20.19;47.67;96548.81;4967039;28;20199;-32
2023/12/21 07:59:59;;;;;;;1.10;1.10;;;;;;;20.18;47.48;96539.47;4973285;28;20681;-26
2023/12/21 08:02:25;;;;;;;1.80;1.07;;;;;;;20.18;47.58;96542.00;4971483;28;20203;-26
2023/12/21 08:04:52;;;;;;;1.33;1.23;;;;;;;20.19;47.39;96530.97;4970813;28;20208;-26
2023/12/21 08:07:18;;;;;;;1.53;1.10;;;;;;;20.20;47.40;96519.94;4969378;28;20690;-30
2023/12/21 08:09:45;;;;;;;1.00;1.00;;;;;;;20.20;47.59;96539.47;4978280;28;20227;-29
2023/12/21 08:12:14;;;;;;;1.00;1.00;;;;;;;20.20;47.53;96522.50;4975806;28;20208;-27
2023/12/21 08:14:41;;;;;;;1.10;0.97;;;;;;;20.19;47.47;96515.66;4964320;28;20255;-28
2023/12/21 08:17:10;;;;;;;1.47;1.13;;;;;;;20.20;47.30;96504.66;4982752;28;20206;-27
2023/12/21 08:19:37;;;;;;;2.73;1.23;;;;;;;20.18;47.29;96503.75;4965252;28;20664;-30
2023/12/21 08:22:04;;;;;;;3.40;1.10;;;;;;;20.20;47.36;96507.19;4973620;28;20547;-26
2023/12/21 08:24:31;;;;;;;1.10;1.03;;;;;;;20.21;47.56;96505.47;4970873;28;20223;-28
2023/12/21 08:26:58;;;;;;;1.13;1.00;;;;;;;20.21;47.63;96506.34;4980140;28;20206;-28
2023/12/21 08:29:25;;;;;;;1.20;1.10;;;;;;;20.21;47.50;96513.13;4967993;28;20572;-26
2023/12/21 08:31:52;;;;;;;2.03;1.10;;;;;;;20.19;47.52;96513.09;4965817;28;20263;-28
2023/12/21 08:34:18;;;;;;;1.00;1.00;;;;;;;20.19;47.42;96512.28;4965693;28;20223;-29
2023/12/21 08:36:45;;;;;;;1.33;1.20;;;;;;;20.18;47.55;96503.75;4969859;28;20291;-26
2023/12/21 08:39:11;;;;;;;1.23;1.13;;;;;;;20.18;47.55;96502.88;4965595;28;20231;-31
2023/12/21 08:41:38;;;;;;;4.70;1.10;;;;;;;20.18;47.54;96508.84;4966516;28;20295;-27
2023/12/21 08:44:05;;;;;;;2.17;1.30;;;;;;;20.20;47.41;96509.75;4963361;28;20234;-26
2023/12/21 08:46:31;;;;;;;2.40;1.10;;;;;;;20.20;47.30;96496.13;4964956;28;20302;-41
2023/12/21 08:48:58;;;;;;;1.20;1.10;;;;;;;20.19;47.40;96495.25;4966791;28;20297;-27
2023/12/21 08:51:24;;;;;;;1.60;1.30;;;;;;;20.20;47.25;96493.56;4965963;28;20623;-27
2023/12/21 08:53:51;;;;;;;2.10;1.27;;;;;;;20.09;47.83;96469.50;4967279;28;20231;-29
2023/12/21 08:56:18;;;;;;;1.10;1.10;;;;;;;20.20;46.93;96488.47;4968263;28;20234;-31
2023/12/21 08:58:44;;;;;;;1.30;1.20;;;;;;;20.20;47.46;96475.72;4968305;28;20692;-29
2023/12/21 09:01:11;;;;;;;1.10;1.10;;;;;;;20.19;47.33;96464.63;4967500;28;20666;-28
2023/12/21 09:03:38;;;;;;;1.97;1.10;;;;;;;20.19;47.49;96462.09;4969335;28;20227;-36
2023/12/21 09:06:05;;;;;;;1.20;1.10;;;;;;;20.19;47.56;96444.22;4966763;28;20576;-28
2023/12/21 09:08:32;;;;;;;1.20;1.10;;;;;;;20.20;47.43;96447.66;4967291;28;20211;-28
2023/12/21 09:10:58;;;;;;;3.53;1.03;;;;;;;20.20;47.17;96450.19;4965844;28;20714;-32
2023/12/21 09:13:25;;;;;;;1.20;1.10;;;;;;;20.18;46.24;96452.72;4963895;28;20257;-28
2023/12/21 09:15:52;;;;;;;1.33;1.30;;;;;;;20.19;46.24;96431.47;4966252;28;20211;-27
2023/12/21 09:18:18;;;;;;;1.73;1.03;;;;;;;20.19;46.29;96430.63;4966214;28;20210;-26
2023/12/21 09:20:45;;;;;;;2.70;1.07;;;;;;;20.19;46.48;96418.72;4965139;28;20595;-30
2023/12/21 09:23:13;;;;;;;2.00;1.27;;;;;;;20.10;46.71;96397.28;4967872;28;20262;-27
2023/12/21 09:25:39;;;;;;;1.40;1.30;;;;;;;20.19;46.68;96410.22;4964150;28;20286;-28
2023/12/21 09:28:06;;;;;;;1.30;1.20;;;;;;;20.10;46.75;96393.03;4963893;28;20739;-27
2023/12/21 09:30:33;;;;;;;4.63;1.63;;;;;;;20.19;46.83;96395.75;4967387;28;21022;-32
2023/12/21 09:33:00;;;;;;;2.77;1.30;;;;;;;20.18;45.94;96394.06;4965992;28;20247;-36
2023/12/21 09:35:27;;;;;;;1.30;1.20;;;;;;;20.19;46.22;96403.41;4967806;28;20302;-30
2023/12/21 09:37:53;;;;;;;1.10;1.00;;;;;;;20.20;46.82;96391.53;4968238;28;20736;-29
2023/12/21 09:40:20;;;;;;;1.20;1.00;;;;;;;20.20;46.81;96381.31;4966749;28;20631;-28
2023/12/21 09:42:48;;;;;;;1.20;1.10;;;;;;;20.20;47.04;96376.22;4968451;28;20231;-27
2023/12/21 09:45:30;;;;;;;1.20;1.10;;;;;;;20.17;46.82;96361.75;4948494;28;20219;-32
2023/12/21 09:47:57;;;;;;;1.67;1.30;;;;;;;20.16;47.04;96346.41;4950398;28;20293;-27
2023/12/21 09:50:25;;;;;;;2.20;1.23;;;;;;;20.19;46.97;96329.44;4949823;28;20637;-28
2023/12/21 09:52:52;;;;;;;1.23;1.17;;;;;;;20.17;46.99;96326.03;4972163;28;20298;-28
2023/12/21 09:55:19;;;;;;;1.10;1.00;;;;;;;20.15;47.38;96320.03;4958011;28;20227;-30
2023/12/21 09:57:45;;;;;;;1.43;1.00;;;;;;;20.17;47.39;96314.97;4950190;28;20215;-29
2023/12/21 10:00:12;;;;;;;1.33;1.10;;;;;;;20.18;47.06;96293.72;4947215;28;20224;-32
2023/12/21 10:02:40;;;;;;;1.77;1.00;;;;;;;20.20;46.90;96290.38;4968814;28;20224;-26
2023/12/21 10:05:07;;;;;;;1.73;1.10;;;;;;;20.21;47.18;96288.66;4955451;28;20294;-28
2023/12/21 10:07:33;;;;;;;2.17;1.20;;;;;;;20.19;47.07;96264.84;4979572;28;20653;-28
2023/12/21 10:10:00;;;;;;;1.10;1.10;;;;;;;20.22;47.21;96257.22;4973763;28;20220;-26
2023/12/21 10:12:27;;;;;;;2.17;1.17;;;;;;;20.22;47.20;96268.28;4970947;28;20662;-26
2023/12/21 10:14:59;;;;;;;1.40;1.20;;;;;;;20.23;47.31;96251.28;4963695;28;20257;-28
2023/12/21 10:17:26;;;;;;;1.47;1.20;;;;;;;20.21;47.31;96248.72;4972012;28;20250;-26
2023/12/21 10:19:53;;;;;;;1.00;1.00;;;;;;;20.21;47.31;96246.16;4970799;28;20195;-27
2023/12/21 10:22:19;;;;;;;1.07;1.00;;;;;;;20.22;47.38;96241.94;4972193;28;20215;-26
2023/12/21 10:24:50;;;;;;;1.07;1.00;;;;;;;20.20;47.00;96241.91;4970800;28;20307;-29
2023/12/21 10:27:18;;;;;;;1.30;1.20;;;;;;;20.19;47.34;96232.50;4986601;28;20202;-27
2023/12/21 10:29:55;;;;;;;1.30;1.13;;;;;;;20.19;47.20;96237.63;4967799;28;20219;-26
2023/12/21 10:32:22;;;;;;;1.00;1.00;;;;;;;20.12;47.34;96212.84;4968116;28;20206;-30
2023/12/21 10:34:49;;;;;;;1.20;1.10;;;;;;;20.19;47.46;96218.94;4972602;28;20234;-26
2023/12/21 10:37:16;;;;;;;1.20;1.00;;;;;;;20.18;47.33;96223.16;4974600;28;20678;-26
2023/12/21 10:39:42;;;;;;;0.90;0.90;;;;;;;20.17;47.27;96213.81;4977621;28;20675;-28
2023/12/21 10:42:09;;;;;;;1.00;1.00;;;;;;;20.18;47.38;96202.75;4974981;28;20240;-27
2023/12/21 10:44:35;;;;;;;2.43;1.20;;;;;;;20.18;47.52;96196.78;4975560;28;20196;-26
2023/12/21 10:47:02;;;;;;;1.40;1.00;;;;;;;20.18;47.31;96189.13;4965714;28;20287;-26
2023/12/21 10:49:29;;;;;;;1.20;1.10;;;;;;;20.22;47.31;96185.81;4972760;28;20233;-26
2023/12/21 10:51:56;;;;;;;1.50;1.10;;;;;;;20.19;47.41;96184.06;4979678;28;20214;-26
2023/12/21 10:54:23;;;;;;;1.10;1.10;;;;;;;20.15;47.58;96166.13;4962955;28;20638;-30
2023/12/21 10:56:49;;;;;;;1.30;1.20;;;;;;;20.19;47.59;96142.41;4956352;28;20235;-32
2023/12/21 10:59:16;;;;;;;1.10;1.10;;;;;;;20.19;47.38;96129.66;4967213;28;20258;-27
2023/12/21 11:01:43;;;;;;;1.10;1.00;;;;;;;20.17;47.34;96121.13;4959078;28;20262;-28
2023/12/21 11:04:10;;;;;;;1.80;1.07;;;;;;;20.19;47.59;96106.69;4958225;28;20231;-29
2023/12/21 11:06:37;;;;;;;1.10;1.00;;;;;;;20.17;47.88;96101.56;4967878;28;20201;-34
2023/12/21 11:09:06;;;;;;;1.10;1.00;;;;;;;20.18;47.48;96097.31;4968185;28;20208;-26
2023/12/21 11:11:34;;;;;;;0.90;0.90;;;;;;;20.17;47.40;96091.38;4971054;28;20200;-26
2023/12/21 11:14:00;;;;;;;1.00;1.00;;;;;;;20.17;47.48;96070.09;4966745;28;20227;-28
2023/12/21 11:16:41;;;;;;;1.20;1.20;;;;;;;20.17;47.44;96052.25;4974838;28;20206;-26
2023/12/21 11:19:09;;;;;;;1.20;1.10;;;;;;;20.17;47.29;96058.22;4976888;28;20609;-26
2023/12/21 11:21:37;;;;;;;1.13;1.00;;;;;;;20.19;47.49;96040.38;4967212;28;20199;-26
2023/12/21 11:24:04;;;;;;;1.10;1.00;;;;;;;20.19;47.58;96030.19;4968201;28;20325;-26
2023/12/21 11:26:30;;;;;;;1.30;1.07;;;;;;;20.19;47.25;96017.44;4977368;28;20222;-35
2023/12/21 11:29:07;;;;;;;1.60;1.10;;;;;;;20.20;47.38;96012.34;4980597;28;20257;-27
2023/12/21 11:31:38;;;;;;;1.30;1.20;;;;;;;20.22;47.55;96002.16;4973206;28;20634;-26
2023/12/21 11:34:15;;;;;;;1.00;1.00;;;;;;;20.20;47.64;95999.59;4978120;28;20692;-26